默认 日期 大小 文件数 浏览量 最新下载 xml
of top磁力链接相关资源由用户搜索指令自动获取,结果来源于网络,本站不存储任何资料,亦不承担任何责任,请于24小时内删除,搜索到6951个磁力,显示前4000条数据,用时35ms。
    ... 2488077, "063 - Fireballs - Bottle Of Wine.mp3": 2109952, "068 - Sam ... , "006 - Cream - Sunshine Of Your Love.mp3": 4033822, "031 ... "028 - Merrilee Rush - Angel Of The Morning.mp3": 3081582, "054 ... "055 - Status Quo - Pictures Of Matchstick Men.mp3": 3061539, "077 ...
创建时间: 2018-12-19 06:16:43 大小:308.09 MB 文件数量:100 热度:5 最近下载:2022-04-09 06:07:51
    ... ": 8182416, "26-Tim McGraw - One of Those Nights.mp3": 8843967, "01 ... Allan - Every Storm (Runs Out Of Rain).mp3": 8762387, "19-Jason ...
创建时间: 2018-12-19 06:29:28 大小:316.46 MB 文件数量:40 热度:7 最近下载:2024-12-12 07:46:02
    {"tracked_by_h33t_com.txt": 185, "Astronomy_January_2013.tgz": 87689066, "Torrent Downloaded From ExtraTorrent.com.txt": 339}
创建时间: 2018-12-19 06:58:24 大小:83.63 MB 文件数量:3 热度:9 最近下载:2024-12-24 13:23:01
    ... .mp3": 7427178, "Top 100 Radio Zu [Best of 2010].png": 138357 ... "17.Wildboyz feat. Ameerah - Sound Of Missing You.mp3": 4976027, "22 ... feat Alicia Keys - Empire State Of Mind.mp3": 6652908, "68. ... Lady Gaga - Alejandro (The Sound of Arrows Remix).mp3": 5729428, " ...
创建时间: 2018-12-19 07:03:16 大小:671.96 MB 文件数量:101 热度:6 最近下载:2022-04-09 06:02:52
    {"CD 1": {"CD 1 - mixed by ATB.ape": 577975608, "CD 1 - mixed by ATB.cue": 2806, "CD 1 - mixed by ATB.log": 5233}, "CD 2": {"CD 2 - mixed by Jan Wayne & Markus Gardeweg.ape": 532631372, "CD 2 - mixed by Jan Wayne & Markus Gardeweg.cue": 2562, "CD 2 - mixed ...
创建时间: 2018-12-19 07:07:59 大小:1.15 GB 文件数量:12 热度:7 最近下载:2024-05-05 00:05:02
    {"Downloaded from PublicHD.EU.txt": 89, "teneighty-top.gear.worst.car.mkv": 5867298209}
创建时间: 2018-12-19 07:14:55 大小:5.46 GB 文件数量:2 热度:6 最近下载:2025-09-22 06:03:02
    ... Dot.mp3": 18835431, "14. Road of Spice.mp3": 20674451, "33. Lets ... Situation.mp3": 20430983, "16. Expansion Of Love.mp3": 15467807, "29. Frogs ... .mp3": 17116587, "4. The Origin Of The Universe.mp3": 22478015, "9 ...
创建时间: 2018-12-19 07:19:07 大小:746.09 MB 文件数量:41 热度:7 最近下载:2022-04-09 07:16:33
    ... ": 4923392, "057 - Rick Springfield - Affair Of The Heart.mp3": 4528128, "016 ... , "006 - Bonnie Tyler - Total Eclipse Of The Heart.mp3": 6677504, "012 ... - Air Supply - Making Love Out Of Nothing At.mp3": 6816768, "015 ...
创建时间: 2018-12-19 07:49:25 大小:481.75 MB 文件数量:100 热度:7 最近下载:2022-04-23 06:54:35
    ... x264-FilmHD.mkv": 2344823806, "Top.of.the.Lake.S02E02.720p.BluRay ... x264-FilmHD.mkv": 2840017539, "Top.of.the.Lake.S02E03.720p.BluRay ... x264-FilmHD.mkv": 2841098109, "Top.of.the.Lake.S02E04.720p.BluRay ... -FilmHD.mkv": 2839598072, "Top.of.the.Lake.S02E05.720p.BluRay ...
创建时间: 2018-12-19 07:50:51 大小:14.95 GB 文件数量:7 热度:9 最近下载:2022-04-23 06:04:19
    {"Cover.jpg": 78365, "DJ Feel - TOP 30 OF NOVEMBER 2016 (05-12-2016).cue": 4060, "DJ Feel - TOP 30 OF NOVEMBER 2016 (05-12-2016).mp3": 286763187}
创建时间: 2018-12-19 08:27:32 大小:273.56 MB 文件数量:3 热度:8 最近下载:2024-04-09 21:50:04
    ... , "0111. Queen - A Kind Of Magic.mp3": 10515449, "0134. Sinead ... 15473274, "0115. Survivor - Eye Of The Tiger.mp3": 9859045, "0136 ... mp3": 10690807, "0138. ZZ Top - Gimme All Your Lovin'.mp3 ... , "0142. The Sisters Of Mercy - Temple of love.mp3": 11707824, "0144 ...
创建时间: 2018-12-19 10:18:23 大小:980.24 MB 文件数量:101 热度:7 最近下载:2024-12-23 07:34:01
    ... "077 - Yardbirds - Heart Full Of Soul.mp3": 2412554, "011 - ... "017 - Roger Miller - King of the Road.mp3": 2306058, "034 ... "032 - Barry Mcguire - Eve Of Destruction.mp3": 3459082, "085 - Robert ... Wayne Fontana and Mindbenders - Game Of Love.mp3": 1095690, "028 - ...
创建时间: 2018-12-19 12:03:45 大小:241.83 MB 文件数量:100 热度:6 最近下载:2022-04-23 05:59:23
    ... Boats & Plains.flac": 13048923}, "Top Of The Pops 1966 (FLAC)": {"TOTP ... From The Top.flac": 21890439}, "Top Of The Pops 1971 ... Genetic Engineering.flac": 25673480}, "Top Of The Pops 1984 (FLAC)": ... Like Chocolate.flac": 21222148}, "Top Of The Pops 2000 (FLAC)": ...
创建时间: 2018-12-19 15:00:00 大小:20.35 GB 文件数量:1047 热度:10 最近下载:2022-04-23 05:54:57
    ... ": 8442477, "08 - Carol Of The Bells (Instrumental).mp3": 7445652 ... ": 12642356, "11 - Blessedness Of Everlasting Light.mp3": 10392536, " ... "Michael W. Smith - Decades of Worship": {"05 - Breathe.mp3": ... mp3": 9644662, "09 - Fingerprints of God.mp3": 8043421, "11 ...
创建时间: 2018-12-19 15:09:54 大小:8.55 GB 文件数量:969 热度:7 最近下载:2022-04-23 06:17:00
    ... ": 9442180, "0461 - Ace Of Base - Wheel Of Fortune.mp3": 3495936, "0007 ... 4173824, "0272 - Bruce Springsteen - Streets Of Philadelphia (aus _2527_2527Ph.mp3": 3149824 ... Shaggy feat. Rayvon - Angel (_2527_2527Angel Of The Morning_2527_2527.mp3": 3772416, "0451 ...
创建时间: 2018-12-19 15:43:14 大小:1.88 GB 文件数量:500 热度:9 最近下载:2025-03-06 00:35:02
    {"16-rodg-miami-508a94a4.mp3": 9603200, "Downloaded From Rarbg.to.txt": 24, "17-tenishia-alba-a5baa060.mp3": 8052864, "09-radion6-sonorous-41ac98b5.mp3": 7542912, "10-marlo-the_launch-818a8a2c.mp3": 7755904, "11-heatbeat-shenlong-f6ced81c.mp3": 8003712, " ...
创建时间: 2018-12-19 15:45:19 大小:162.5 MB 文件数量:26 热度:7 最近下载:2025-03-29 04:38:03
    ... Henry Mancini - Top Hat- Music From The FIlms Of Astaire & ... Rogers.cue": 1504, "Henry Mancini - Top Hat- ... FIlms Of Astaire & Rogers.log": 6018, "Henry Mancini - Top Hat- ... Music From The FIlms Of Astaire & Rogers ...
创建时间: 2018-12-19 16:17:35 大小:406.4 MB 文件数量:11 热度:10 最近下载:2025-08-04 01:18:04
    ... "73_99 Donny Osmond - The Twelfth Of Never.mp3": 2574336, "73_10 Diana ... 3750094, "73_82 The Spinners - One Of A Kind (Love Affair).mp3 ... Wonder - You Are The Sunshine Of My Life.mp3": 3586254, " ... the Medicine Show - The Cover of Rolling Stone.mp3": 3520718, " ...
创建时间: 2018-12-19 16:18:52 大小:408.27 MB 文件数量:100 热度:7 最近下载:2022-04-23 06:07:00
    ... Händel - Arrival Of The Queen Of Sheba (1749).m4a": ... 09.Wolfgang Amadeus Mozart - Marriage Of Figaro (1786).m4a": 2307007, ... Amadeus Mozart - The Marriage Of Figaro (1786).m4a": 4659299}, ... 01.Gioacchino Rossini - The Barber Of Seville (1821).m4a": 7808775}, ...
创建时间: 2018-12-19 16:50:24 大小:603.93 MB 文件数量:100 热度:12 最近下载:2025-03-24 22:20:02
    ... ": 3651584, "0461-Ace.Of.Base-Wheel.Of.Fortune.mp3": 3495936, ... ": 5963776, "0824-Sisters.Of.Mercy-Temple.Of.Love.mp3": 7802880, ... Kiss.mp3": 2482176, "TOP.1000.of.the.last.30.years. ... 3655680, "0272-Bruce.Springsteen-Streets.Of.Philadelphia.mp3": 3149824, "0475 ...
创建时间: 2018-12-19 17:05:15 大小:3.57 GB 文件数量:1001 热度:10 最近下载:2025-02-02 15:39:02